• Join FlightAware (Why Join?)
  • Login
  • US Flag 
08:32AM EDT


 

Airport Tracker/Info


-or-


 

Live Flight TrackerFlight Track Log ✈ JUS327 ✈ 13-Apr-2013 ✈ MMIO / SLW - KLRD

Flight Track Log - Related Links

Times and Time Zones

All times are in EDT time to prevent confusion due to time zone crossing. See the JUS327 flight status page for this flight to view local times or setup timezone preferences in your user account.

Time Position Orientation Groundspeed Altitude Reporting Facility
EDT Latitude Longitude Course Direction KTS MPH feet Rate Location/Type
08:23PM 26.4531 -100.2867 33° Northeast 477 549 24,900  Level Houston Center
08:24PM 26.5650 -100.2025 34° Northeast 481 554 25,000  Climbing Houston Center
08:25PM 26.6792 -100.1211 32° Northeast 484 557 25,000 -60 Level Houston Center
08:26PM 26.7939 -100.0417 32° Northeast 484 557 24,900 -900 Descending Houston Center
08:27PM 26.3302 -100.3618 33° Northeast  Level Estimated
08:27PM 26.9017 -99.9567 35° Northeast 477 549 23,200  Level Houston Center
08:28PM 26.3951 -100.3142 33° Northeast  Level Estimated
08:28PM 27.0053 -99.8881 31° Northeast 445 512 20,700  Level Houston Center
08:29PM 26.4601 -100.2666 33° Northeast  Level Estimated
08:29PM 27.1011 -99.8206 32° Northeast 427 491 17,600  Level Houston Center
08:30PM 27.1894 -99.7500 35° Northeast 408 470 14,900 -2,460 Descending Houston Center
08:31PM 27.2761 -99.6883 32° Northeast 386 444 12,600 -2,100 Descending Houston Center
08:33PM 27.3667 -99.6175 35° Northeast 351 404 10,600 -1,980 Descending Houston Center
08:34PM 27.4369 -99.5664 33° Northeast 322 371 8,600 -1,920 Descending Houston Center
08:35PM 27.5119 -99.5567 North 295 339 6,700 -1,860 Descending Houston Center
08:36PM 27.5881 -99.5614 357° North 279 321 4,800 -1,680 Descending Houston Center
08:37PM 27.6500 -99.5303 24° Northeast 274 315 3,300 -1,200 Descending Houston Center
08:38PM 27.6461 -99.4700 94° East 221 254 2,400 -960 Descending Houston Center
08:39PM 27.6061 -99.4603 168° South 173 199 1,400 -840 Descending Houston Center
08:40PM 27.5719 -99.4611 181° South 142 163 800 -600 Descending Houston Center